sensor_id;sensor_type;location;lat;lon;timestamp;temperature;humidity
38938;DHT22;24727;51.974;20.868;2023-03-04T00:02:11;0.20;1.00
38938;DHT22;24727;51.974;20.868;2023-03-04T00:04:37;0.30;1.00
38938;DHT22;24727;51.974;20.868;2023-03-04T00:07:03;0.30;1.00
38938;DHT22;24727;51.974;20.868;2023-03-04T00:09:29;0.30;1.00
38938;DHT22;24727;51.974;20.868;2023-03-04T00:11:56;0.30;1.00
38938;DHT22;24727;51.974;20.868;2023-03-04T00:14:22;0.30;1.00
38938;DHT22;24727;51.974;20.868;2023-03-04T00:16:48;0.20;1.00
38938;DHT22;24727;51.974;20.868;2023-03-04T00:19:15;0.30;1.00
38938;DHT22;24727;51.974;20.868;2023-03-04T00:21:42;0.20;1.00
38938;DHT22;24727;51.974;20.868;2023-03-04T00:24:08;0.20;1.00
38938;DHT22;24727;51.974;20.868;2023-03-04T00:26:34;0.20;1.00
38938;DHT22;24727;51.974;20.868;2023-03-04T00:29:00;0.30;1.00
38938;DHT22;24727;51.974;20.868;2023-03-04T00:31:26;0.20;1.00
38938;DHT22;24727;51.974;20.868;2023-03-04T00:33:52;0.20;1.00
38938;DHT22;24727;51.974;20.868;2023-03-04T00:36:19;0.20;1.00
38938;DHT22;24727;51.974;20.868;2023-03-04T00:38:46;0.20;1.00
38938;DHT22;24727;51.974;20.868;2023-03-04T00:41:12;0.20;1.00
38938;DHT22;24727;51.974;20.868;2023-03-04T00:43:38;0.10;1.00
38938;DHT22;24727;51.974;20.868;2023-03-04T00:46:04;0.20;1.00
38938;DHT22;24727;51.974;20.868;2023-03-04T00:48:30;0.20;1.00
38938;DHT22;24727;51.974;20.868;2023-03-04T00:50:57;0.20;1.00
38938;DHT22;24727;51.974;20.868;2023-03-04T00:53:24;0.20;1.00
38938;DHT22;24727;51.974;20.868;2023-03-04T00:55:50;0.20;1.00
38938;DHT22;24727;51.974;20.868;2023-03-04T00:58:17;0.20;1.00
38938;DHT22;24727;51.974;20.868;2023-03-04T01:00:45;0.20;1.00
38938;DHT22;24727;51.974;20.868;2023-03-04T01:03:12;0.20;1.00
38938;DHT22;24727;51.974;20.868;2023-03-04T01:05:39;0.20;1.00
38938;DHT22;24727;51.974;20.868;2023-03-04T01:08:05;0.20;1.00
38938;DHT22;24727;51.974;20.868;2023-03-04T01:10:32;0.20;1.00
38938;DHT22;24727;51.974;20.868;2023-03-04T01:13:00;0.20;1.00
38938;DHT22;24727;51.974;20.868;2023-03-04T01:15:26;0.20;1.00
38938;DHT22;24727;51.974;20.868;2023-03-04T01:17:54;0.30;1.00
38938;DHT22;24727;51.974;20.868;2023-03-04T01:20:21;0.20;1.00
38938;DHT22;24727;51.974;20.868;2023-03-04T01:22:47;0.30;1.00
38938;DHT22;24727;51.974;20.868;2023-03-04T01:25:13;0.30;1.00
38938;DHT22;24727;51.974;20.868;2023-03-04T01:27:40;0.30;1.00
38938;DHT22;24727;51.974;20.868;2023-03-04T01:30:08;0.30;1.00
38938;DHT22;24727;51.974;20.868;2023-03-04T01:32:34;0.30;1.00
38938;DHT22;24727;51.974;20.868;2023-03-04T01:35:00;0.30;1.00
38938;DHT22;24727;51.974;20.868;2023-03-04T01:37:26;0.30;1.00
38938;DHT22;24727;51.974;20.868;2023-03-04T01:39:52;0.20;1.00
38938;DHT22;24727;51.974;20.868;2023-03-04T01:42:22;0.30;1.00
38938;DHT22;24727;51.974;20.868;2023-03-04T01:44:50;0.20;1.00
38938;DHT22;24727;51.974;20.868;2023-03-04T01:47:18;0.30;1.00
38938;DHT22;24727;51.974;20.868;2023-03-04T01:49:54;0.20;1.00
38938;DHT22;24727;51.974;20.868;2023-03-04T01:52:20;0.20;1.00
38938;DHT22;24727;51.974;20.868;2023-03-04T01:54:47;0.20;1.00
38938;DHT22;24727;51.974;20.868;2023-03-04T01:57:19;0.20;1.00
38938;DHT22;24727;51.974;20.868;2023-03-04T01:59:46;0.20;1.00
38938;DHT22;24727;51.974;20.868;2023-03-04T02:02:13;0.20;1.00
38938;DHT22;24727;51.974;20.868;2023-03-04T02:04:40;0.20;1.00
38938;DHT22;24727;51.974;20.868;2023-03-04T02:07:07;0.20;1.00
38938;DHT22;24727;51.974;20.868;2023-03-04T02:09:34;0.20;1.00
38938;DHT22;24727;51.974;20.868;2023-03-04T02:12:01;0.20;1.00
38938;DHT22;24727;51.974;20.868;2023-03-04T02:14:27;0.20;1.00
38938;DHT22;24727;51.974;20.868;2023-03-04T02:16:53;0.20;1.00
38938;DHT22;24727;51.974;20.868;2023-03-04T02:21:48;0.20;1.00
38938;DHT22;24727;51.974;20.868;2023-03-04T02:26:45;0.10;1.00
38938;DHT22;24727;51.974;20.868;2023-03-04T02:29:14;0.10;1.00
38938;DHT22;24727;51.974;20.868;2023-03-04T02:31:45;0.10;1.00
38938;DHT22;24727;51.974;20.868;2023-03-04T02:36:38;0.20;1.00
38938;DHT22;24727;51.974;20.868;2023-03-04T02:39:19;0.20;1.00
38938;DHT22;24727;51.974;20.868;2023-03-04T02:41:47;0.20;1.00
38938;DHT22;24727;51.974;20.868;2023-03-04T02:44:26;0.30;1.00
38938;DHT22;24727;51.974;20.868;2023-03-04T02:46:53;0.30;1.00
38938;DHT22;24727;51.974;20.868;2023-03-04T02:49:20;0.30;1.00
38938;DHT22;24727;51.974;20.868;2023-03-04T02:51:52;0.30;1.00
38938;DHT22;24727;51.974;20.868;2023-03-04T02:54:23;0.40;1.00
38938;DHT22;24727;51.974;20.868;2023-03-04T02:56:54;0.40;1.00
38938;DHT22;24727;51.974;20.868;2023-03-04T02:59:21;0.40;1.00
38938;DHT22;24727;51.974;20.868;2023-03-04T03:01:49;0.40;1.00
38938;DHT22;24727;51.974;20.868;2023-03-04T03:04:19;0.50;1.00
38938;DHT22;24727;51.974;20.868;2023-03-04T03:06:46;0.50;1.00
38938;DHT22;24727;51.974;20.868;2023-03-04T03:09:12;0.50;1.00
38938;DHT22;24727;51.974;20.868;2023-03-04T03:11:38;0.60;1.00
38938;DHT22;24727;51.974;20.868;2023-03-04T03:14:04;0.60;1.00
38938;DHT22;24727;51.974;20.868;2023-03-04T03:16:30;0.60;1.00
38938;DHT22;24727;51.974;20.868;2023-03-04T03:18:57;0.60;1.00
38938;DHT22;24727;51.974;20.868;2023-03-04T03:21:23;0.60;1.00
38938;DHT22;24727;51.974;20.868;2023-03-04T03:23:49;0.70;1.00
38938;DHT22;24727;51.974;20.868;2023-03-04T03:26:16;0.70;1.00
38938;DHT22;24727;51.974;20.868;2023-03-04T03:28:43;0.70;1.00
38938;DHT22;24727;51.974;20.868;2023-03-04T03:31:10;0.70;1.00
38938;DHT22;24727;51.974;20.868;2023-03-04T03:33:36;0.70;1.00
38938;DHT22;24727;51.974;20.868;2023-03-04T03:36:03;0.70;1.00
38938;DHT22;24727;51.974;20.868;2023-03-04T03:38:29;0.80;1.00
38938;DHT22;24727;51.974;20.868;2023-03-04T03:40:55;0.80;1.00
38938;DHT22;24727;51.974;20.868;2023-03-04T03:43:22;0.80;1.00
38938;DHT22;24727;51.974;20.868;2023-03-04T03:45:49;0.80;1.00
38938;DHT22;24727;51.974;20.868;2023-03-04T03:48:17;0.80;1.00
38938;DHT22;24727;51.974;20.868;2023-03-04T03:50:43;0.80;1.00
38938;DHT22;24727;51.974;20.868;2023-03-04T03:53:22;0.90;1.00
38938;DHT22;24727;51.974;20.868;2023-03-04T03:55:48;0.80;1.00
38938;DHT22;24727;51.974;20.868;2023-03-04T03:58:14;0.80;1.00
38938;DHT22;24727;51.974;20.868;2023-03-04T04:00:41;0.90;1.00
38938;DHT22;24727;51.974;20.868;2023-03-04T04:03:11;0.90;1.00
38938;DHT22;24727;51.974;20.868;2023-03-04T04:05:39;1.00;1.00
38938;DHT22;24727;51.974;20.868;2023-03-04T04:08:04;1.00;1.00
38938;DHT22;24727;51.974;20.868;2023-03-04T04:10:31;1.00;1.00
38938;DHT22;24727;51.974;20.868;2023-03-04T04:12:57;1.00;1.00
38938;DHT22;24727;51.974;20.868;2023-03-04T04:15:24;1.00;1.00
38938;DHT22;24727;51.974;20.868;2023-03-04T04:17:50;1.00;1.00
38938;DHT22;24727;51.974;20.868;2023-03-04T04:20:16;1.10;1.00
38938;DHT22;24727;51.974;20.868;2023-03-04T04:22:42;1.10;1.00
38938;DHT22;24727;51.974;20.868;2023-03-04T04:25:09;1.10;1.00
38938;DHT22;24727;51.974;20.868;2023-03-04T04:27:35;1.10;1.00
38938;DHT22;24727;51.974;20.868;2023-03-04T04:30:03;1.10;1.00
38938;DHT22;24727;51.974;20.868;2023-03-04T04:32:30;1.10;1.00
38938;DHT22;24727;51.974;20.868;2023-03-04T04:34:56;1.10;1.00
38938;DHT22;24727;51.974;20.868;2023-03-04T04:37:22;1.10;1.00
38938;DHT22;24727;51.974;20.868;2023-03-04T04:39:49;1.10;1.00
38938;DHT22;24727;51.974;20.868;2023-03-04T04:42:17;1.20;1.00
38938;DHT22;24727;51.974;20.868;2023-03-04T04:44:44;1.10;1.00
38938;DHT22;24727;51.974;20.868;2023-03-04T04:47:12;1.20;1.00
38938;DHT22;24727;51.974;20.868;2023-03-04T04:49:38;1.10;1.00
38938;DHT22;24727;51.974;20.868;2023-03-04T04:52:08;1.20;1.00
38938;DHT22;24727;51.974;20.868;2023-03-04T04:54:34;1.20;1.00
38938;DHT22;24727;51.974;20.868;2023-03-04T04:57:08;1.10;1.00
38938;DHT22;24727;51.974;20.868;2023-03-04T04:59:35;1.20;1.00
38938;DHT22;24727;51.974;20.868;2023-03-04T05:02:01;1.20;1.00
38938;DHT22;24727;51.974;20.868;2023-03-04T05:04:28;1.20;1.00
38938;DHT22;24727;51.974;20.868;2023-03-04T05:06:54;1.20;1.00
38938;DHT22;24727;51.974;20.868;2023-03-04T05:09:20;1.20;1.00
38938;DHT22;24727;51.974;20.868;2023-03-04T05:11:48;1.30;1.00
38938;DHT22;24727;51.974;20.868;2023-03-04T05:14:15;1.30;1.00
38938;DHT22;24727;51.974;20.868;2023-03-04T05:16:40;1.30;1.00
38938;DHT22;24727;51.974;20.868;2023-03-04T05:19:06;1.30;1.00
38938;DHT22;24727;51.974;20.868;2023-03-04T05:21:34;1.30;1.00
38938;DHT22;24727;51.974;20.868;2023-03-04T05:24:00;1.30;1.00
38938;DHT22;24727;51.974;20.868;2023-03-04T05:26:27;1.20;1.00
38938;DHT22;24727;51.974;20.868;2023-03-04T05:28:53;1.20;1.00
38938;DHT22;24727;51.974;20.868;2023-03-04T05:31:19;1.30;1.00
38938;DHT22;24727;51.974;20.868;2023-03-04T05:33:45;1.30;1.00
38938;DHT22;24727;51.974;20.868;2023-03-04T05:36:12;1.30;1.00
38938;DHT22;24727;51.974;20.868;2023-03-04T05:38:38;1.30;1.00
38938;DHT22;24727;51.974;20.868;2023-03-04T05:41:06;1.30;1.00
38938;DHT22;24727;51.974;20.868;2023-03-04T05:43:33;1.30;1.00
38938;DHT22;24727;51.974;20.868;2023-03-04T05:46:03;1.30;1.00
38938;DHT22;24727;51.974;20.868;2023-03-04T05:48:29;1.30;1.00
38938;DHT22;24727;51.974;20.868;2023-03-04T05:50:58;1.30;1.00
38938;DHT22;24727;51.974;20.868;2023-03-04T05:53:25;1.30;1.00
38938;DHT22;24727;51.974;20.868;2023-03-04T05:55:52;1.40;1.00
38938;DHT22;24727;51.974;20.868;2023-03-04T05:58:18;1.40;1.00
38938;DHT22;24727;51.974;20.868;2023-03-04T06:00:44;1.40;1.00
38938;DHT22;24727;51.974;20.868;2023-03-04T06:03:21;1.30;1.00
38938;DHT22;24727;51.974;20.868;2023-03-04T06:05:48;1.40;1.00
38938;DHT22;24727;51.974;20.868;2023-03-04T06:08:13;1.40;1.00
38938;DHT22;24727;51.974;20.868;2023-03-04T06:10:40;1.40;1.00
38938;DHT22;24727;51.974;20.868;2023-03-04T06:13:07;1.30;1.00
38938;DHT22;24727;51.974;20.868;2023-03-04T06:15:33;1.40;1.00
38938;DHT22;24727;51.974;20.868;2023-03-04T06:17:59;1.40;1.00
38938;DHT22;24727;51.974;20.868;2023-03-04T06:20:25;1.30;1.00
38938;DHT22;24727;51.974;20.868;2023-03-04T06:22:51;1.30;1.00
38938;DHT22;24727;51.974;20.868;2023-03-04T06:25:16;1.30;1.00
38938;DHT22;24727;51.974;20.868;2023-03-04T06:27:43;1.30;1.00
38938;DHT22;24727;51.974;20.868;2023-03-04T06:30:11;1.30;1.00
38938;DHT22;24727;51.974;20.868;2023-03-04T06:32:38;1.30;1.00
38938;DHT22;24727;51.974;20.868;2023-03-04T06:35:05;1.30;1.00
38938;DHT22;24727;51.974;20.868;2023-03-04T06:37:31;1.30;1.00
38938;DHT22;24727;51.974;20.868;2023-03-04T06:39:57;1.30;1.00
38938;DHT22;24727;51.974;20.868;2023-03-04T06:42:23;1.30;1.00
38938;DHT22;24727;51.974;20.868;2023-03-04T06:44:49;1.30;1.00
38938;DHT22;24727;51.974;20.868;2023-03-04T06:47:15;1.30;1.00
38938;DHT22;24727;51.974;20.868;2023-03-04T06:49:43;1.30;1.00
38938;DHT22;24727;51.974;20.868;2023-03-04T06:52:11;1.30;1.00
38938;DHT22;24727;51.974;20.868;2023-03-04T06:54:38;1.30;1.00
38938;DHT22;24727;51.974;20.868;2023-03-04T06:57:05;1.40;1.00
38938;DHT22;24727;51.974;20.868;2023-03-04T06:59:31;1.30;1.00
38938;DHT22;24727;51.974;20.868;2023-03-04T07:01:56;1.30;1.00
38938;DHT22;24727;51.974;20.868;2023-03-04T07:04:22;1.40;1.00
38938;DHT22;24727;51.974;20.868;2023-03-04T07:06:49;1.30;1.00
38938;DHT22;24727;51.974;20.868;2023-03-04T07:09:17;1.30;1.00
38938;DHT22;24727;51.974;20.868;2023-03-04T07:11:44;1.40;1.00
38938;DHT22;24727;51.974;20.868;2023-03-04T07:14:10;1.40;1.00
38938;DHT22;24727;51.974;20.868;2023-03-04T07:16:36;1.40;1.00
38938;DHT22;24727;51.974;20.868;2023-03-04T07:19:03;1.40;1.00
38938;DHT22;24727;51.974;20.868;2023-03-04T07:21:29;1.40;1.00
38938;DHT22;24727;51.974;20.868;2023-03-04T07:23:57;1.40;1.00
38938;DHT22;24727;51.974;20.868;2023-03-04T07:26:33;1.40;1.00
38938;DHT22;24727;51.974;20.868;2023-03-04T07:29:05;1.40;1.00
38938;DHT22;24727;51.974;20.868;2023-03-04T07:31:33;1.40;1.00
38938;DHT22;24727;51.974;20.868;2023-03-04T07:34:02;1.40;1.00
38938;DHT22;24727;51.974;20.868;2023-03-04T07:36:29;1.40;1.00
38938;DHT22;24727;51.974;20.868;2023-03-04T07:38:55;1.40;1.00
38938;DHT22;24727;51.974;20.868;2023-03-04T07:41:23;1.50;1.00
38938;DHT22;24727;51.974;20.868;2023-03-04T07:43:51;1.50;1.00
38938;DHT22;24727;51.974;20.868;2023-03-04T07:46:18;1.50;1.00
38938;DHT22;24727;51.974;20.868;2023-03-04T07:48:44;1.50;1.00
38938;DHT22;24727;51.974;20.868;2023-03-04T07:51:17;1.50;1.00
38938;DHT22;24727;51.974;20.868;2023-03-04T07:53:46;1.50;1.00
38938;DHT22;24727;51.974;20.868;2023-03-04T07:56:15;1.50;1.00
38938;DHT22;24727;51.974;20.868;2023-03-04T07:58:41;1.60;1.00
38938;DHT22;24727;51.974;20.868;2023-03-04T08:01:12;1.60;1.00
38938;DHT22;24727;51.974;20.868;2023-03-04T08:03:38;1.60;1.00
38938;DHT22;24727;51.974;20.868;2023-03-04T08:06:09;1.60;1.00
38938;DHT22;24727;51.974;20.868;2023-03-04T08:08:36;1.60;1.00
38938;DHT22;24727;51.974;20.868;2023-03-04T08:11:08;1.60;1.00
38938;DHT22;24727;51.974;20.868;2023-03-04T08:13:35;1.60;1.00
38938;DHT22;24727;51.974;20.868;2023-03-04T08:16:02;1.60;1.00
38938;DHT22;24727;51.974;20.868;2023-03-04T08:18:28;1.60;1.00
38938;DHT22;24727;51.974;20.868;2023-03-04T08:20:54;1.60;1.00
38938;DHT22;24727;51.974;20.868;2023-03-04T08:23:22;1.60;1.00
38938;DHT22;24727;51.974;20.868;2023-03-04T08:25:48;1.70;1.00
38938;DHT22;24727;51.974;20.868;2023-03-04T08:28:15;1.70;1.00
38938;DHT22;24727;51.974;20.868;2023-03-04T08:30:42;1.70;1.00
38938;DHT22;24727;51.974;20.868;2023-03-04T08:33:10;1.60;1.00
38938;DHT22;24727;51.974;20.868;2023-03-04T08:35:37;1.70;1.00
38938;DHT22;24727;51.974;20.868;2023-03-04T08:38:04;1.70;1.00
38938;DHT22;24727;51.974;20.868;2023-03-04T08:40:31;1.70;1.00
38938;DHT22;24727;51.974;20.868;2023-03-04T08:42:57;1.70;1.00
38938;DHT22;24727;51.974;20.868;2023-03-04T08:45:23;1.70;1.00
38938;DHT22;24727;51.974;20.868;2023-03-04T08:47:51;1.80;1.00
38938;DHT22;24727;51.974;20.868;2023-03-04T08:50:17;1.70;1.00
38938;DHT22;24727;51.974;20.868;2023-03-04T08:52:43;1.70;1.00
38938;DHT22;24727;51.974;20.868;2023-03-04T08:55:09;1.70;1.00
38938;DHT22;24727;51.974;20.868;2023-03-04T08:57:36;1.70;1.00
38938;DHT22;24727;51.974;20.868;2023-03-04T09:00:04;1.60;1.00
38938;DHT22;24727;51.974;20.868;2023-03-04T09:02:30;1.70;1.00
38938;DHT22;24727;51.974;20.868;2023-03-04T09:04:56;1.70;1.00
38938;DHT22;24727;51.974;20.868;2023-03-04T09:07:23;1.70;1.00
38938;DHT22;24727;51.974;20.868;2023-03-04T09:09:50;1.60;1.00
38938;DHT22;24727;51.974;20.868;2023-03-04T09:12:16;1.70;1.00
38938;DHT22;24727;51.974;20.868;2023-03-04T09:14:42;1.70;1.00
38938;DHT22;24727;51.974;20.868;2023-03-04T09:17:09;1.70;1.00
38938;DHT22;24727;51.974;20.868;2023-03-04T09:19:36;1.70;1.00
38938;DHT22;24727;51.974;20.868;2023-03-04T09:22:03;1.70;1.00
38938;DHT22;24727;51.974;20.868;2023-03-04T09:24:28;1.70;1.00
38938;DHT22;24727;51.974;20.868;2023-03-04T09:26:55;1.70;1.00
38938;DHT22;24727;51.974;20.868;2023-03-04T09:29:22;1.70;1.00
38938;DHT22;24727;51.974;20.868;2023-03-04T09:31:48;1.70;1.00
38938;DHT22;24727;51.974;20.868;2023-03-04T09:34:15;1.70;1.00
38938;DHT22;24727;51.974;20.868;2023-03-04T09:36:42;1.80;1.00
38938;DHT22;24727;51.974;20.868;2023-03-04T09:39:14;1.70;1.00
38938;DHT22;24727;51.974;20.868;2023-03-04T09:41:46;1.70;1.00
38938;DHT22;24727;51.974;20.868;2023-03-04T09:44:30;1.80;1.00
38938;DHT22;24727;51.974;20.868;2023-03-04T09:47:05;1.80;1.00
38938;DHT22;24727;51.974;20.868;2023-03-04T09:49:33;1.80;1.00
38938;DHT22;24727;51.974;20.868;2023-03-04T09:55:01;1.90;1.00
38938;DHT22;24727;51.974;20.868;2023-03-04T10:00:30;1.90;1.00
38938;DHT22;24727;51.974;20.868;2023-03-04T10:10:46;2.10;1.00
38938;DHT22;24727;51.974;20.868;2023-03-04T10:13:20;2.20;1.00
38938;DHT22;24727;51.974;20.868;2023-03-04T10:15:49;2.20;1.00
38938;DHT22;24727;51.974;20.868;2023-03-04T10:18:33;2.30;1.00
38938;DHT22;24727;51.974;20.868;2023-03-04T10:23:28;2.40;1.00
38938;DHT22;24727;51.974;20.868;2023-03-04T10:25:54;2.50;1.00
38938;DHT22;24727;51.974;20.868;2023-03-04T10:28:25;2.50;1.00
38938;DHT22;24727;51.974;20.868;2023-03-04T10:30:58;2.50;1.00
38938;DHT22;24727;51.974;20.868;2023-03-04T10:33:29;2.50;1.00
38938;DHT22;24727;51.974;20.868;2023-03-04T10:36:03;2.50;1.00
38938;DHT22;24727;51.974;20.868;2023-03-04T10:38:35;2.50;1.00
38938;DHT22;24727;51.974;20.868;2023-03-04T10:41:11;2.60;1.00
38938;DHT22;24727;51.974;20.868;2023-03-04T10:43:38;2.60;1.00
38938;DHT22;24727;51.974;20.868;2023-03-04T10:46:05;2.60;1.00
38938;DHT22;24727;51.974;20.868;2023-03-04T10:48:31;2.60;1.00
38938;DHT22;24727;51.974;20.868;2023-03-04T10:51:22;2.60;1.00
38938;DHT22;24727;51.974;20.868;2023-03-04T10:53:54;2.70;1.00
38938;DHT22;24727;51.974;20.868;2023-03-04T10:56:37;2.70;1.00
38938;DHT22;24727;51.974;20.868;2023-03-04T11:04:42;2.70;1.00
38938;DHT22;24727;51.974;20.868;2023-03-04T11:07:14;2.70;1.00
38938;DHT22;24727;51.974;20.868;2023-03-04T11:09:43;2.80;1.00
38938;DHT22;24727;51.974;20.868;2023-03-04T11:12:15;2.70;1.00
38938;DHT22;24727;51.974;20.868;2023-03-04T11:14:48;2.80;1.00
38938;DHT22;24727;51.974;20.868;2023-03-04T11:17:26;2.80;1.00
38938;DHT22;24727;51.974;20.868;2023-03-04T11:20:32;2.80;1.00
38938;DHT22;24727;51.974;20.868;2023-03-04T11:23:05;2.90;1.00
38938;DHT22;24727;51.974;20.868;2023-03-04T11:25:40;2.90;1.00
38938;DHT22;24727;51.974;20.868;2023-03-04T11:28:23;2.90;1.00
38938;DHT22;24727;51.974;20.868;2023-03-04T11:31:04;2.90;1.00
38938;DHT22;24727;51.974;20.868;2023-03-04T11:33:40;2.90;1.00
38938;DHT22;24727;51.974;20.868;2023-03-04T11:38:45;2.90;1.00
38938;DHT22;24727;51.974;20.868;2023-03-04T11:41:27;2.90;1.00
38938;DHT22;24727;51.974;20.868;2023-03-04T11:43:58;2.90;1.00
38938;DHT22;24727;51.974;20.868;2023-03-04T11:57:39;3.10;1.00
38938;DHT22;24727;51.974;20.868;2023-03-04T12:03:23;3.20;1.00
38938;DHT22;24727;51.974;20.868;2023-03-04T12:09:07;3.20;1.00
38938;DHT22;24727;51.974;20.868;2023-03-04T12:11:54;3.20;1.00
38938;DHT22;24727;51.974;20.868;2023-03-04T12:14:37;3.30;1.00
38938;DHT22;24727;51.974;20.868;2023-03-04T12:17:23;3.30;1.00
38938;DHT22;24727;51.974;20.868;2023-03-04T12:20:29;3.30;1.00
38938;DHT22;24727;51.974;20.868;2023-03-04T12:28:30;3.40;1.00
38938;DHT22;24727;51.974;20.868;2023-03-04T12:34:28;3.40;1.00
38938;DHT22;24727;51.974;20.868;2023-03-04T12:37:15;3.30;1.00
38938;DHT22;24727;51.974;20.868;2023-03-04T12:40:11;3.30;1.00
38938;DHT22;24727;51.974;20.868;2023-03-04T12:43:07;3.30;1.00
38938;DHT22;24727;51.974;20.868;2023-03-04T12:48:45;3.40;1.00
38938;DHT22;24727;51.974;20.868;2023-03-04T12:53:53;3.40;1.00
38938;DHT22;24727;51.974;20.868;2023-03-04T12:56:25;3.30;1.00
38938;DHT22;24727;51.974;20.868;2023-03-04T12:58:53;3.30;1.00
38938;DHT22;24727;51.974;20.868;2023-03-04T13:01:41;3.20;1.00
38938;DHT22;24727;51.974;20.868;2023-03-04T13:10:19;3.30;1.00
38938;DHT22;24727;51.974;20.868;2023-03-04T13:12:53;3.30;1.00
38938;DHT22;24727;51.974;20.868;2023-03-04T13:15:28;3.30;1.00
38938;DHT22;24727;51.974;20.868;2023-03-04T13:20:41;3.20;1.00
38938;DHT22;24727;51.974;20.868;2023-03-04T13:23:26;3.10;1.00
38938;DHT22;24727;51.974;20.868;2023-03-04T13:28:35;2.80;4.90
38938;DHT22;24727;51.974;20.868;2023-03-04T13:31:23;2.50;22.50
38938;DHT22;24727;51.974;20.868;2023-03-04T13:33:54;2.00;51.50
38938;DHT22;24727;51.974;20.868;2023-03-04T13:36:52;1.90;67.50
38938;DHT22;24727;51.974;20.868;2023-03-04T13:39:25;1.50;76.90
38938;DHT22;24727;51.974;20.868;2023-03-04T13:41:53;1.40;85.00
38938;DHT22;24727;51.974;20.868;2023-03-04T13:47:21;1.40;92.60
38938;DHT22;24727;51.974;20.868;2023-03-04T13:49:49;1.40;94.10
38938;DHT22;24727;51.974;20.868;2023-03-04T13:52:39;1.40;95.20
38938;DHT22;24727;51.974;20.868;2023-03-04T13:55:39;1.40;96.10
38938;DHT22;24727;51.974;20.868;2023-03-04T13:58:26;1.50;96.80
38938;DHT22;24727;51.974;20.868;2023-03-04T14:00:54;1.50;97.40
38938;DHT22;24727;51.974;20.868;2023-03-04T14:03:28;1.50;97.20
38938;DHT22;24727;51.974;20.868;2023-03-04T14:08:38;1.50;94.00
38938;DHT22;24727;51.974;20.868;2023-03-04T14:11:08;1.60;93.00
38938;DHT22;24727;51.974;20.868;2023-03-04T14:13:36;1.60;89.60
38938;DHT22;24727;51.974;20.868;2023-03-04T14:16:02;1.60;85.00
38938;DHT22;24727;51.974;20.868;2023-03-04T14:18:29;1.60;84.00
38938;DHT22;24727;51.974;20.868;2023-03-04T14:20:57;1.70;83.20
38938;DHT22;24727;51.974;20.868;2023-03-04T14:23:32;1.70;80.70
38938;DHT22;24727;51.974;20.868;2023-03-04T14:26:13;1.70;80.90
38938;DHT22;24727;51.974;20.868;2023-03-04T14:28:48;1.80;80.60
38938;DHT22;24727;51.974;20.868;2023-03-04T14:31:27;2.00;73.90
38938;DHT22;24727;51.974;20.868;2023-03-04T14:33:57;2.00;72.40
38938;DHT22;24727;51.974;20.868;2023-03-04T14:36:32;2.00;70.30
38938;DHT22;24727;51.974;20.868;2023-03-04T14:39:01;2.00;71.90
38938;DHT22;24727;51.974;20.868;2023-03-04T14:41:32;2.00;74.10
38938;DHT22;24727;51.974;20.868;2023-03-04T14:47:36;2.00;73.10
38938;DHT22;24727;51.974;20.868;2023-03-04T14:50:14;2.10;72.80
38938;DHT22;24727;51.974;20.868;2023-03-04T14:52:48;2.10;72.80
38938;DHT22;24727;51.974;20.868;2023-03-04T14:55:27;2.10;75.00
38938;DHT22;24727;51.974;20.868;2023-03-04T15:00:38;2.20;71.60
38938;DHT22;24727;51.974;20.868;2023-03-04T15:03:27;2.20;72.00
38938;DHT22;24727;51.974;20.868;2023-03-04T15:05:55;2.20;68.30
38938;DHT22;24727;51.974;20.868;2023-03-04T15:08:41;2.20;74.10
38938;DHT22;24727;51.974;20.868;2023-03-04T15:11:12;2.20;70.90
38938;DHT22;24727;51.974;20.868;2023-03-04T15:13:41;2.20;70.50
38938;DHT22;24727;51.974;20.868;2023-03-04T15:16:09;2.20;68.00
38938;DHT22;24727;51.974;20.868;2023-03-04T15:18:37;2.20;67.30
38938;DHT22;24727;51.974;20.868;2023-03-04T15:21:27;2.10;70.60
38938;DHT22;24727;51.974;20.868;2023-03-04T15:23:50;2.10;69.30
38938;DHT22;24727;51.974;20.868;2023-03-04T15:26:16;2.10;69.50
38938;DHT22;24727;51.974;20.868;2023-03-04T15:28:43;2.00;71.00
38938;DHT22;24727;51.974;20.868;2023-03-04T15:31:20;2.00;69.60
38938;DHT22;24727;51.974;20.868;2023-03-04T15:33:47;2.00;69.60
38938;DHT22;24727;51.974;20.868;2023-03-04T15:36:15;2.10;65.40
38938;DHT22;24727;51.974;20.868;2023-03-04T15:38:48;2.20;65.90
38938;DHT22;24727;51.974;20.868;2023-03-04T15:41:26;2.20;64.30
38938;DHT22;24727;51.974;20.868;2023-03-04T15:44:00;2.10;64.20
38938;DHT22;24727;51.974;20.868;2023-03-04T15:46:34;2.10;63.10
38938;DHT22;24727;51.974;20.868;2023-03-04T15:49:00;2.10;62.00
38938;DHT22;24727;51.974;20.868;2023-03-04T15:51:27;2.10;61.50
38938;DHT22;24727;51.974;20.868;2023-03-04T15:53:56;2.10;61.00
38938;DHT22;24727;51.974;20.868;2023-03-04T15:56:28;2.20;60.60
38938;DHT22;24727;51.974;20.868;2023-03-04T15:59:00;2.30;60.40
38938;DHT22;24727;51.974;20.868;2023-03-04T16:01:28;2.20;64.60
38938;DHT22;24727;51.974;20.868;2023-03-04T16:03:55;2.20;64.50
38938;DHT22;24727;51.974;20.868;2023-03-04T16:06:23;2.50;1.00
38938;DHT22;24727;51.974;20.868;2023-03-04T16:08:51;2.60;1.00
38938;DHT22;24727;51.974;20.868;2023-03-04T16:11:27;2.70;1.00
38938;DHT22;24727;51.974;20.868;2023-03-04T16:13:55;2.70;1.00
38938;DHT22;24727;51.974;20.868;2023-03-04T16:16:23;2.60;1.00
38938;DHT22;24727;51.974;20.868;2023-03-04T16:18:49;2.50;1.00
38938;DHT22;24727;51.974;20.868;2023-03-04T16:21:18;2.40;1.00
38938;DHT22;24727;51.974;20.868;2023-03-04T16:23:47;2.30;1.00
38938;DHT22;24727;51.974;20.868;2023-03-04T16:26:17;2.30;1.00
38938;DHT22;24727;51.974;20.868;2023-03-04T16:28:49;2.20;1.00
38938;DHT22;24727;51.974;20.868;2023-03-04T16:31:18;2.20;1.00
38938;DHT22;24727;51.974;20.868;2023-03-04T16:33:46;2.20;1.00
38938;DHT22;24727;51.974;20.868;2023-03-04T16:38:40;2.10;1.00
38938;DHT22;24727;51.974;20.868;2023-03-04T16:41:11;2.00;1.00
38938;DHT22;24727;51.974;20.868;2023-03-04T16:43:39;2.00;1.00
38938;DHT22;24727;51.974;20.868;2023-03-04T16:46:11;1.90;1.00
38938;DHT22;24727;51.974;20.868;2023-03-04T16:48:39;1.70;1.00
38938;DHT22;24727;51.974;20.868;2023-03-04T16:51:15;1.80;1.00
38938;DHT22;24727;51.974;20.868;2023-03-04T16:53:47;1.80;1.00
38938;DHT22;24727;51.974;20.868;2023-03-04T16:56:18;1.60;1.00
38938;DHT22;24727;51.974;20.868;2023-03-04T16:58:45;1.50;1.00
38938;DHT22;24727;51.974;20.868;2023-03-04T17:01:23;1.50;1.00
38938;DHT22;24727;51.974;20.868;2023-03-04T17:03:51;1.40;1.00
38938;DHT22;24727;51.974;20.868;2023-03-04T17:06:17;1.40;1.00
38938;DHT22;24727;51.974;20.868;2023-03-04T17:08:44;1.30;1.00
38938;DHT22;24727;51.974;20.868;2023-03-04T17:11:12;1.20;1.00
38938;DHT22;24727;51.974;20.868;2023-03-04T17:13:40;1.10;1.00
38938;DHT22;24727;51.974;20.868;2023-03-04T17:16:07;1.00;1.00
38938;DHT22;24727;51.974;20.868;2023-03-04T17:18:33;1.00;1.00
38938;DHT22;24727;51.974;20.868;2023-03-04T17:21:05;0.90;1.00
38938;DHT22;24727;51.974;20.868;2023-03-04T17:23:33;0.80;1.00
38938;DHT22;24727;51.974;20.868;2023-03-04T17:26:00;1.00;1.00
38938;DHT22;24727;51.974;20.868;2023-03-04T17:28:29;0.80;1.00
38938;DHT22;24727;51.974;20.868;2023-03-04T17:30:57;0.80;1.00